WMT411 ESMS-LATI
Flight info
| Callsign | WMT411 |
|---|---|
| Flight time | 2h 10m |
| Altitude | 37000 |
| Route | TELMO Z491 KEKOV DCT POKEN Z491 VAVUN L996 DOSAL DCT DESEN DCT VALPI DCT NIT DCT BABIT DCT TADAM DCT AKIKA/N0348F180 T8 INLOT |
| Aircraft | A321/M-SDE1E2E3FGIJ1J4RWXY/LB1 |
Departure
| Time | 2026-05-04 09:17 |
|---|---|
| Airport | Malmö Sturup Airport (ESMS) |
Arrival
| Time | 2026-05-04 11:27 |
|---|---|
| Airport | Tirana International Airport Mother Teresa (LATI) |
| Time | Latitude | Longitude | Altitude | Speed | Heading |
|---|---|---|---|---|---|
| 2026-05-04 08:48 | 55.54217 | 13.36633 | 236 ft | 0 kts | 353° |
| 2026-05-04 08:57 | 55.54217 | 13.36634 | 236 ft | 0 kts | 353° |
| 2026-05-04 09:01 | 55.54216 | 13.36634 | 236 ft | 0 kts | 353° |
| 2026-05-04 09:11 | 55.54218 | 13.36638 | 236 ft | 1 kts | 27° |
| 2026-05-04 09:12 | 55.54210 | 13.36660 | 236 ft | 6 kts | 135° |
| 2026-05-04 09:12 | 55.54179 | 13.36760 | 236 ft | 11 kts | 109° |
| 2026-05-04 09:14 | 55.53527 | 13.37348 | 235 ft | 27 kts | 174° |
| 2026-05-04 09:14 | 55.53344 | 13.37380 | 235 ft | 25 kts | 173° |
| 2026-05-04 09:14 | 55.53171 | 13.37416 | 237 ft | 26 kts | 172° |
| 2026-05-04 09:14 | 55.53002 | 13.37459 | 237 ft | 21 kts | 169° |
| 2026-05-04 09:15 | 55.52855 | 13.37489 | 235 ft | 22 kts | 174° |
| 2026-05-04 09:15 | 55.52697 | 13.37515 | 234 ft | 23 kts | 175° |
| 2026-05-04 09:15 | 55.52531 | 13.37552 | 236 ft | 25 kts | 172° |
| 2026-05-04 09:15 | 55.52380 | 13.37659 | 234 ft | 24 kts | 142° |
| 2026-05-04 09:17 | 55.58192 | 13.36714 | 2307 ft | 195 kts | 347° |
| 2026-05-04 09:18 | 55.59598 | 13.36416 | 2709 ft | 209 kts | 345° |
| 2026-05-04 09:18 | 55.61063 | 13.36126 | 3420 ft | 214 kts | 351° |
| 2026-05-04 09:18 | 55.62540 | 13.36652 | 4240 ft | 228 kts | 28° |
| 2026-05-04 09:18 | 55.63567 | 13.38807 | 4993 ft | 243 kts | 68° |
| 2026-05-04 09:19 | 55.63654 | 13.41789 | 5745 ft | 250 kts | 109° |
| 2026-05-04 09:19 | 55.62764 | 13.44385 | 6504 ft | 248 kts | 137° |
| 2026-05-04 09:19 | 55.61491 | 13.46438 | 7249 ft | 248 kts | 146° |
| 2026-05-04 09:19 | 55.60133 | 13.48351 | 8019 ft | 251 kts | 147° |
| 2026-05-04 09:20 | 55.58770 | 13.50315 | 8763 ft | 255 kts | 146° |
| 2026-05-04 09:20 | 55.57362 | 13.52211 | 9498 ft | 253 kts | 158° |
| 2026-05-04 09:20 | 55.55751 | 13.53375 | 10132 ft | 253 kts | 173° |
| 2026-05-04 09:20 | 55.53958 | 13.53799 | 10384 ft | 270 kts | 183° |
| 2026-05-04 09:21 | 55.52001 | 13.54034 | 10634 ft | 294 kts | 182° |
| 2026-05-04 09:21 | 55.49881 | 13.54324 | 10849 ft | 318 kts | 181° |
| 2026-05-04 09:21 | 55.47617 | 13.54662 | 11239 ft | 333 kts | 180° |
| 2026-05-04 09:21 | 55.45293 | 13.55036 | 11917 ft | 338 kts | 180° |
| 2026-05-04 09:22 | 55.42942 | 13.55494 | 12649 ft | 344 kts | 174° |
| 2026-05-04 09:22 | 55.40651 | 13.56946 | 13353 ft | 359 kts | 156° |
| 2026-05-04 09:22 | 55.38630 | 13.59638 | 14006 ft | 370 kts | 143° |
| 2026-05-04 09:22 | 55.36713 | 13.62690 | 14659 ft | 373 kts | 143° |
| 2026-05-04 09:23 | 55.34785 | 13.65770 | 15322 ft | 376 kts | 143° |
| 2026-05-04 09:23 | 55.32842 | 13.68869 | 16007 ft | 379 kts | 143° |
| 2026-05-04 09:23 | 55.30878 | 13.71976 | 16674 ft | 381 kts | 144° |
| 2026-05-04 09:23 | 55.28895 | 13.75095 | 17335 ft | 384 kts | 144° |
| 2026-05-04 09:25 | 55.14554 | 13.97517 | 21472 ft | 405 kts | 145° |
| 2026-05-04 09:25 | 55.12438 | 14.00800 | 22049 ft | 408 kts | 146° |
| 2026-05-04 09:26 | 55.10309 | 14.04099 | 22612 ft | 411 kts | 146° |
| 2026-05-04 09:26 | 55.08162 | 14.07421 | 23160 ft | 414 kts | 146° |
| 2026-05-04 09:26 | 55.06078 | 14.10957 | 23658 ft | 424 kts | 138° |
| 2026-05-04 09:26 | 55.04313 | 14.15161 | 24083 ft | 436 kts | 127° |
| 2026-05-04 09:27 | 55.02836 | 14.19741 | 24497 ft | 441 kts | 125° |
| 2026-05-04 09:27 | 55.01332 | 14.24423 | 24916 ft | 444 kts | 126° |
| 2026-05-04 09:27 | 54.99809 | 14.29122 | 25330 ft | 447 kts | 126° |
| 2026-05-04 09:27 | 54.98269 | 14.33847 | 25692 ft | 450 kts | 126° |
| 2026-05-04 09:28 | 54.96648 | 14.38501 | 26103 ft | 448 kts | 132° |
| 2026-05-04 09:28 | 54.94682 | 14.42650 | 26491 ft | 442 kts | 142° |
| 2026-05-04 09:28 | 54.92393 | 14.46150 | 26878 ft | 436 kts | 151° |
| 2026-05-04 09:28 | 54.89855 | 14.48956 | 27203 ft | 431 kts | 160° |
| 2026-05-04 09:29 | 54.87204 | 14.51445 | 27559 ft | 434 kts | 160° |
| 2026-05-04 09:29 | 54.84538 | 14.53951 | 27932 ft | 438 kts | 160° |
| 2026-05-04 09:29 | 54.81832 | 14.56382 | 28305 ft | 436 kts | 164° |
| 2026-05-04 09:29 | 54.79013 | 14.58252 | 28686 ft | 434 kts | 168° |
| 2026-05-04 09:30 | 54.76160 | 14.60019 | 29047 ft | 437 kts | 169° |
| 2026-05-04 09:30 | 54.73289 | 14.61779 | 29407 ft | 440 kts | 169° |
| 2026-05-04 09:30 | 54.70394 | 14.63549 | 29758 ft | 442 kts | 169° |
| 2026-05-04 09:30 | 54.67485 | 14.65326 | 30092 ft | 445 kts | 169° |
| 2026-05-04 09:31 | 54.64557 | 14.67115 | 30417 ft | 447 kts | 169° |
| 2026-05-04 09:31 | 54.61621 | 14.68909 | 30681 ft | 449 kts | 168° |
| 2026-05-04 09:31 | 54.58661 | 14.70715 | 30916 ft | 453 kts | 168° |
| 2026-05-04 09:31 | 54.55683 | 14.72536 | 31249 ft | 455 kts | 168° |
| 2026-05-04 09:32 | 54.52703 | 14.74359 | 31683 ft | 453 kts | 168° |
| 2026-05-04 09:32 | 54.49743 | 14.76173 | 32227 ft | 449 kts | 168° |
| 2026-05-04 09:34 | 54.29679 | 14.88319 | 35292 ft | 433 kts | 167° |
| 2026-05-04 09:34 | 54.26834 | 14.90022 | 35597 ft | 433 kts | 167° |
| 2026-05-04 09:34 | 54.23989 | 14.91692 | 35892 ft | 433 kts | 168° |
| 2026-05-04 09:34 | 54.21132 | 14.93330 | 36185 ft | 433 kts | 168° |
| 2026-05-04 09:35 | 54.18270 | 14.94946 | 36461 ft | 433 kts | 168° |
| 2026-05-04 09:35 | 54.15413 | 14.96554 | 36741 ft | 434 kts | 167° |
| 2026-05-04 09:35 | 54.12535 | 14.98177 | 36911 ft | 436 kts | 167° |
| 2026-05-04 09:35 | 54.09654 | 14.99805 | 36959 ft | 436 kts | 167° |
| 2026-05-04 09:37 | 53.86616 | 15.12384 | 36964 ft | 435 kts | 168° |
| 2026-05-04 09:38 | 53.80888 | 15.15478 | 36971 ft | 435 kts | 168° |
| 2026-05-04 09:38 | 53.75118 | 15.18592 | 36961 ft | 435 kts | 168° |
| 2026-05-04 09:39 | 53.69268 | 15.21725 | 36966 ft | 447 kts | 168° |
| 2026-05-04 09:39 | 53.63293 | 15.24904 | 36971 ft | 451 kts | 168° |
| 2026-05-04 09:40 | 53.57298 | 15.28095 | 36972 ft | 452 kts | 168° |
| 2026-05-04 09:40 | 53.51299 | 15.31288 | 36944 ft | 452 kts | 168° |
| 2026-05-04 09:42 | 53.27891 | 15.47993 | 36993 ft | 458 kts | 162° |
| 2026-05-04 09:43 | 53.22034 | 15.52211 | 36960 ft | 458 kts | 162° |
| 2026-05-04 09:43 | 53.16177 | 15.56450 | 36974 ft | 459 kts | 162° |
| 2026-05-04 09:44 | 53.10310 | 15.60700 | 36993 ft | 460 kts | 162° |
| 2026-05-04 09:46 | 52.86787 | 15.77589 | 37011 ft | 460 kts | 162° |
| 2026-05-04 09:46 | 52.80911 | 15.81771 | 36993 ft | 460 kts | 161° |
| 2026-05-04 09:47 | 52.75026 | 15.85953 | 37009 ft | 460 kts | 162° |
| 2026-05-04 09:49 | 52.51467 | 16.02558 | 37020 ft | 462 kts | 162° |
| 2026-05-04 09:51 | 52.30762 | 16.17001 | 37024 ft | 462 kts | 161° |
| 2026-05-04 09:51 | 52.24842 | 16.21089 | 37024 ft | 462 kts | 161° |
| 2026-05-04 09:52 | 52.18920 | 16.25177 | 37025 ft | 462 kts | 161° |
| 2026-05-04 09:52 | 52.13008 | 16.29250 | 37025 ft | 462 kts | 161° |
| 2026-05-04 09:53 | 52.07094 | 16.33320 | 37008 ft | 462 kts | 161° |
| 2026-05-04 09:53 | 52.01178 | 16.37384 | 37001 ft | 462 kts | 161° |
| 2026-05-04 09:54 | 51.95262 | 16.41427 | 37017 ft | 461 kts | 161° |
| 2026-05-04 09:54 | 51.90348 | 16.44770 | 37031 ft | 461 kts | 161° |
| 2026-05-04 09:55 | 51.84439 | 16.48780 | 37018 ft | 461 kts | 161° |
| 2026-05-04 09:55 | 51.78529 | 16.52785 | 37025 ft | 461 kts | 161° |
| 2026-05-04 09:56 | 51.72614 | 16.56771 | 37032 ft | 461 kts | 161° |
| 2026-05-04 09:56 | 51.66696 | 16.60753 | 37034 ft | 461 kts | 161° |
| 2026-05-04 09:57 | 51.60776 | 16.64732 | 37030 ft | 461 kts | 161° |
| 2026-05-04 09:57 | 51.54849 | 16.68702 | 37022 ft | 462 kts | 161° |
| 2026-05-04 09:58 | 51.48913 | 16.72677 | 37029 ft | 462 kts | 161° |
| 2026-05-04 09:58 | 51.42968 | 16.76636 | 37037 ft | 462 kts | 161° |
| 2026-05-04 10:00 | 51.19156 | 16.92358 | 37013 ft | 463 kts | 161° |
| 2026-05-04 10:04 | 50.77320 | 17.19605 | 37041 ft | 466 kts | 161° |
| 2026-05-04 10:04 | 50.71316 | 17.23466 | 37036 ft | 466 kts | 160° |
| 2026-05-04 10:05 | 50.65316 | 17.27336 | 37039 ft | 466 kts | 160° |
| 2026-05-04 10:05 | 50.59318 | 17.31188 | 37045 ft | 466 kts | 161° |
| 2026-05-04 10:06 | 50.53312 | 17.35027 | 37046 ft | 466 kts | 161° |
| 2026-05-04 10:06 | 50.47305 | 17.38846 | 37041 ft | 466 kts | 160° |
| 2026-05-04 10:08 | 50.26197 | 17.51943 | 37049 ft | 464 kts | 168° |
| 2026-05-04 10:08 | 50.19920 | 17.54199 | 37045 ft | 463 kts | 171° |
| 2026-05-04 10:09 | 50.13641 | 17.56435 | 37053 ft | 463 kts | 170° |
| 2026-05-04 10:09 | 50.07364 | 17.58666 | 37059 ft | 462 kts | 170° |
| 2026-05-04 10:10 | 50.01088 | 17.60886 | 37057 ft | 463 kts | 169° |
| 2026-05-04 10:10 | 49.94800 | 17.63098 | 37049 ft | 464 kts | 169° |
| 2026-05-04 10:11 | 49.88502 | 17.65317 | 37049 ft | 465 kts | 171° |
| 2026-05-04 10:11 | 49.82183 | 17.67538 | 37067 ft | 466 kts | 170° |
| 2026-05-04 10:12 | 49.75866 | 17.69749 | 37067 ft | 466 kts | 172° |
| 2026-05-04 10:12 | 49.69540 | 17.71949 | 37069 ft | 466 kts | 169° |
| 2026-05-04 10:13 | 49.63212 | 17.74146 | 37076 ft | 466 kts | 171° |
| 2026-05-04 10:13 | 49.56881 | 17.76343 | 37070 ft | 466 kts | 170° |
| 2026-05-04 10:14 | 49.50554 | 17.78545 | 37069 ft | 466 kts | 170° |
| 2026-05-04 10:16 | 49.25471 | 17.87175 | 37093 ft | 467 kts | 170° |
| 2026-05-04 10:16 | 49.19125 | 17.89336 | 37082 ft | 468 kts | 170° |
| 2026-05-04 10:17 | 49.12782 | 17.91506 | 37081 ft | 468 kts | 170° |
| 2026-05-04 10:19 | 48.87094 | 17.97137 | 37104 ft | 468 kts | 178° |
| 2026-05-04 10:19 | 48.80604 | 17.98035 | 37115 ft | 469 kts | 179° |
| 2026-05-04 10:20 | 48.74113 | 17.98923 | 37128 ft | 469 kts | 176° |
| 2026-05-04 10:20 | 48.67617 | 17.99806 | 37127 ft | 469 kts | 178° |
| 2026-05-04 10:21 | 48.61119 | 18.00697 | 37130 ft | 469 kts | 177° |
| 2026-05-04 10:21 | 48.54619 | 18.01585 | 37131 ft | 469 kts | 176° |
| 2026-05-04 10:22 | 48.44874 | 18.02907 | 37101 ft | 469 kts | 176° |
| 2026-05-04 10:23 | 48.38362 | 18.03788 | 37105 ft | 470 kts | 177° |
| 2026-05-04 10:25 | 48.12696 | 18.11405 | 37115 ft | 473 kts | 167° |
| 2026-05-04 10:25 | 48.06324 | 18.13866 | 37105 ft | 473 kts | 167° |
| 2026-05-04 10:26 | 47.99938 | 18.16321 | 37124 ft | 474 kts | 167° |
| 2026-05-04 10:26 | 47.93546 | 18.18776 | 37122 ft | 474 kts | 166° |
| 2026-05-04 10:27 | 47.87157 | 18.21235 | 37126 ft | 474 kts | 166° |
| 2026-05-04 10:27 | 47.80805 | 18.23676 | 37122 ft | 475 kts | 167° |
| 2026-05-04 10:28 | 47.74409 | 18.26127 | 37122 ft | 475 kts | 167° |
| 2026-05-04 10:28 | 47.68013 | 18.28558 | 37131 ft | 475 kts | 167° |
| 2026-05-04 10:29 | 47.61612 | 18.30987 | 37138 ft | 474 kts | 166° |
| 2026-05-04 10:29 | 47.55198 | 18.33423 | 37113 ft | 476 kts | 166° |
| 2026-05-04 10:30 | 47.48781 | 18.35847 | 37130 ft | 476 kts | 166° |
| 2026-05-04 10:30 | 47.42357 | 18.38263 | 37122 ft | 477 kts | 167° |
| 2026-05-04 10:31 | 47.35919 | 18.40678 | 37139 ft | 478 kts | 167° |
| 2026-05-04 10:32 | 47.13315 | 18.49149 | 37151 ft | 479 kts | 166° |
| 2026-05-04 10:33 | 47.06856 | 18.51552 | 37155 ft | 479 kts | 166° |
| 2026-05-04 10:33 | 47.00398 | 18.53948 | 37153 ft | 479 kts | 166° |
| 2026-05-04 10:34 | 46.93939 | 18.56341 | 37149 ft | 479 kts | 166° |
| 2026-05-04 10:34 | 46.87478 | 18.58717 | 37146 ft | 479 kts | 166° |
| 2026-05-04 10:35 | 46.81012 | 18.61093 | 37156 ft | 479 kts | 166° |
| 2026-05-04 10:35 | 46.74593 | 18.63456 | 37155 ft | 479 kts | 166° |
| 2026-05-04 10:36 | 46.68121 | 18.65823 | 37145 ft | 480 kts | 166° |
| 2026-05-04 10:36 | 46.61642 | 18.68198 | 37148 ft | 481 kts | 166° |
| 2026-05-04 10:37 | 46.55149 | 18.70569 | 37154 ft | 481 kts | 166° |
| 2026-05-04 10:37 | 46.48646 | 18.72925 | 37158 ft | 481 kts | 166° |
| 2026-05-04 10:39 | 46.25871 | 18.81158 | 37164 ft | 483 kts | 166° |
| 2026-05-04 10:40 | 46.19356 | 18.83511 | 37154 ft | 483 kts | 166° |
| 2026-05-04 10:40 | 46.13937 | 18.85468 | 37159 ft | 483 kts | 166° |
| 2026-05-04 10:41 | 46.07411 | 18.87813 | 37163 ft | 484 kts | 166° |
| 2026-05-04 10:41 | 45.99818 | 18.90522 | 37163 ft | 484 kts | 166° |
| 2026-05-04 10:42 | 45.94373 | 18.92639 | 37168 ft | 484 kts | 159° |
| 2026-05-04 10:42 | 45.88460 | 18.97179 | 37165 ft | 483 kts | 147° |
| 2026-05-04 10:43 | 45.82824 | 19.02329 | 37165 ft | 483 kts | 147° |
| 2026-05-04 10:45 | 45.60061 | 19.22945 | 37167 ft | 485 kts | 147° |
| 2026-05-04 10:45 | 45.54350 | 19.28078 | 37171 ft | 485 kts | 147° |
| 2026-05-04 10:46 | 45.48632 | 19.33212 | 37168 ft | 486 kts | 147° |
| 2026-05-04 10:46 | 45.42913 | 19.38350 | 37174 ft | 486 kts | 147° |
| 2026-05-04 10:47 | 45.37184 | 19.43484 | 37180 ft | 486 kts | 147° |
| 2026-05-04 10:47 | 45.31448 | 19.48594 | 37178 ft | 487 kts | 147° |
| 2026-05-04 10:49 | 45.05295 | 19.55012 | 37177 ft | 487 kts | 180° |
| 2026-05-04 10:50 | 44.98511 | 19.55166 | 37178 ft | 488 kts | 180° |
| 2026-05-04 10:52 | 44.71374 | 19.55766 | 37177 ft | 489 kts | 180° |
| 2026-05-04 10:52 | 44.64573 | 19.55909 | 37177 ft | 489 kts | 180° |
| 2026-05-04 10:54 | 44.37310 | 19.56517 | 37178 ft | 491 kts | 180° |
| 2026-05-04 10:56 | 44.09933 | 19.57095 | 37182 ft | 492 kts | 180° |
| 2026-05-04 10:57 | 44.03088 | 19.57248 | 37177 ft | 492 kts | 180° |
| 2026-05-04 10:57 | 43.96231 | 19.57401 | 37186 ft | 493 kts | 180° |
| 2026-05-04 10:58 | 43.89365 | 19.57548 | 37181 ft | 494 kts | 180° |
| 2026-05-04 10:58 | 43.82490 | 19.57692 | 37175 ft | 494 kts | 180° |
| 2026-05-04 10:59 | 43.75610 | 19.57837 | 37184 ft | 495 kts | 180° |
| 2026-05-04 10:59 | 43.68722 | 19.57976 | 37191 ft | 495 kts | 180° |
| 2026-05-04 11:00 | 43.61832 | 19.58113 | 37182 ft | 495 kts | 180° |
| 2026-05-04 11:02 | 43.34278 | 19.58715 | 37190 ft | 497 kts | 180° |
| 2026-05-04 11:05 | 42.82310 | 19.59790 | 37190 ft | 499 kts | 180° |
| 2026-05-04 11:06 | 42.75440 | 19.59934 | 36616 ft | 494 kts | 180° |
| 2026-05-04 11:06 | 42.71988 | 19.60002 | 35802 ft | 498 kts | 180° |
| 2026-05-04 11:06 | 42.68511 | 19.60069 | 34983 ft | 501 kts | 181° |
| 2026-05-04 11:08 | 42.44604 | 19.57955 | 30786 ft | 483 kts | 194° |
| 2026-05-04 11:10 | 42.22201 | 19.51847 | 26870 ft | 456 kts | 193° |
| 2026-05-04 11:12 | 42.01009 | 19.46115 | 23423 ft | 433 kts | 192° |
| 2026-05-04 11:12 | 41.98032 | 19.45637 | 22934 ft | 429 kts | 181° |
| 2026-05-04 11:12 | 41.95101 | 19.45930 | 22020 ft | 417 kts | 169° |
| 2026-05-04 11:12 | 41.92224 | 19.46610 | 20879 ft | 412 kts | 168° |
| 2026-05-04 11:13 | 41.89422 | 19.47289 | 19820 ft | 406 kts | 168° |
| 2026-05-04 11:13 | 41.86668 | 19.47964 | 18831 ft | 398 kts | 168° |
| 2026-05-04 11:13 | 41.84016 | 19.48608 | 18387 ft | 375 kts | 168° |
| 2026-05-04 11:13 | 41.81550 | 19.49196 | 17947 ft | 355 kts | 168° |
| 2026-05-04 11:14 | 41.79154 | 19.49763 | 17531 ft | 337 kts | 168° |
| 2026-05-04 11:14 | 41.76867 | 19.50305 | 17140 ft | 340 kts | 168° |
| 2026-05-04 11:14 | 41.74511 | 19.50863 | 16730 ft | 339 kts | 168° |
| 2026-05-04 11:16 | 41.58356 | 19.54289 | 13880 ft | 335 kts | 173° |
| 2026-05-04 11:16 | 41.56034 | 19.54568 | 13444 ft | 334 kts | 173° |
| 2026-05-04 11:16 | 41.53755 | 19.54840 | 13040 ft | 333 kts | 173° |
| 2026-05-04 11:17 | 41.51454 | 19.55122 | 12639 ft | 330 kts | 173° |
| 2026-05-04 11:17 | 41.49176 | 19.55413 | 12237 ft | 328 kts | 173° |
| 2026-05-04 11:19 | 41.33633 | 19.57510 | 9672 ft | 310 kts | 173° |
| 2026-05-04 11:19 | 41.31506 | 19.57797 | 9388 ft | 305 kts | 173° |
| 2026-05-04 11:19 | 41.29386 | 19.58083 | 8971 ft | 305 kts | 173° |
| 2026-05-04 11:19 | 41.27292 | 19.58365 | 8661 ft | 301 kts | 173° |
| 2026-05-04 11:20 | 41.25211 | 19.58650 | 8315 ft | 300 kts | 173° |
| 2026-05-04 11:20 | 41.23130 | 19.58935 | 7757 ft | 305 kts | 173° |
| 2026-05-04 11:20 | 41.21006 | 19.59238 | 7270 ft | 307 kts | 170° |
| 2026-05-04 11:20 | 41.19061 | 19.60245 | 6862 ft | 300 kts | 140° |
| 2026-05-04 11:22 | 41.21186 | 19.75425 | 4061 ft | 249 kts | 4° |
| 2026-05-04 11:22 | 41.22852 | 19.75306 | 3733 ft | 234 kts | 352° |
| 2026-05-04 11:23 | 41.24406 | 19.74939 | 3426 ft | 221 kts | 349° |
| 2026-05-04 11:23 | 41.25871 | 19.74564 | 3159 ft | 209 kts | 349° |
| 2026-05-04 11:24 | 41.33004 | 19.73261 | 1783 ft | 140 kts | 352° |
| 2026-05-04 11:25 | 41.33975 | 19.73120 | 1553 ft | 138 kts | 352° |
| 2026-05-04 11:25 | 41.34911 | 19.72985 | 1349 ft | 137 kts | 351° |
| 2026-05-04 11:25 | 41.35858 | 19.72849 | 1134 ft | 137 kts | 351° |
| 2026-05-04 11:26 | 41.37753 | 19.72582 | 719 ft | 136 kts | 353° |
| 2026-05-04 11:27 | 41.41863 | 19.71985 | 121 ft | 4 kts | 313° |
| 2026-05-04 11:28 | 41.41873 | 19.71941 | 124 ft | 6 kts | 264° |
| 2026-05-04 11:28 | 41.41865 | 19.71875 | 124 ft | 9 kts | 263° |
| 2026-05-04 11:28 | 41.41859 | 19.71781 | 121 ft | 12 kts | 265° |
| 2026-05-04 11:28 | 41.41853 | 19.71687 | 124 ft | 8 kts | 265° |
| 2026-05-04 11:29 | 41.41851 | 19.71628 | 123 ft | 0 kts | 274° |
| 2026-05-04 11:29 | 41.41853 | 19.71614 | 122 ft | 3 kts | 283° |
| 2026-05-04 11:29 | 41.41865 | 19.71588 | 122 ft | 4 kts | 319° |
| 2026-05-04 11:31 | 41.42026 | 19.71543 | 123 ft | 3 kts | 281° |
| 2026-05-04 11:33 | 41.42026 | 19.71504 | 122 ft | 0 kts | 265° |
| 2026-05-04 11:34 | 41.42026 | 19.71505 | 122 ft | 0 kts | 265° |